Time;durP1;ratioP1;P1;durP2;ratioP2;P2;SDS_P1;SDS_P2;PMS_P1;PMS_P2;Temp;Humidity;BMP_temperature;BMP_pressure;BME280_temperature;BME280_humidity;BME280_pressure;Samples;Min_cycle;Max_cycle;Signal;HPM_P1;HPM_P2
2021/12/14 00:01:10;;;;;;;;;;;;;;;7.41;93.20;101690.75;5044760;28;19970;-84
2021/12/14 00:03:39;;;;;;;;;;;;;;;7.40;92.98;101692.53;5026829;28;19952;-83
2021/12/14 00:06:04;;;;;;;;;;;;;;;7.35;93.23;101697.25;5030902;28;19944;-84
2021/12/14 00:08:36;;;;;;;;;;;;;;;7.41;93.17;101704.75;5029278;28;20366;-84
2021/12/14 00:15:54;;;;;;;;;;;;;;;7.43;92.92;101699.38;5050018;28;19956;-83
2021/12/14 00:18:19;;;;;;;;;;;;;;;7.33;93.41;101699.16;5035636;28;19996;-83
2021/12/14 00:20:45;;;;;;;;;;;;;;;7.34;93.34;101703.50;5026414;28;19933;-83
2021/12/14 00:25:58;;;;;;;;;;;;;;;7.47;93.04;101694.78;5025867;28;19974;-83
2021/12/14 00:28:25;;;;;;;;;;;;;;;7.45;92.85;101693.06;5032877;28;20233;-83
2021/12/14 00:30:51;;;;;;;;;;;;;;;7.43;92.70;101687.06;5026457;28;19921;-83
2021/12/14 00:33:18;;;;;;;;;;;;;;;7.40;93.19;101687.28;5044777;28;19925;-81
2021/12/14 00:35:45;;;;;;;;;;;;;;;7.39;93.07;101682.97;5055940;28;20556;-83
2021/12/14 00:38:11;;;;;;;;;;;;;;;7.41;93.22;101686.34;5054464;28;19932;-83
2021/12/14 00:40:41;;;;;;;;;;;;;;;7.45;92.96;101679.06;5055034;28;19996;-83
2021/12/14 00:43:07;;;;;;;;;;;;;;;7.46;93.10;101683.41;5055372;28;19920;-82
2021/12/14 00:45:34;;;;;;;;;;;;;;;7.48;92.98;101678.03;5052473;28;19921;-83
2021/12/14 00:48:00;;;;;;;;;;;;;;;7.45;93.10;101671.19;5057643;28;19920;-84
2021/12/14 00:50:27;;;;;;;;;;;;;;;7.46;93.38;101675.50;5053818;28;19959;-84
2021/12/14 00:52:52;;;;;;;;;;;;;;;7.47;93.13;101682.44;5069089;28;20326;-84
2021/12/14 00:55:19;;;;;;;;;;;;;;;7.38;93.94;101683.06;5058969;28;20151;-84
2021/12/14 00:57:45;;;;;;;;;;;;;;;7.26;94.50;101682.09;5053491;28;20163;-84
2021/12/14 01:00:14;;;;;;;;;;;;;;;7.21;94.50;101673.66;5052190;28;19929;-84
2021/12/14 01:02:39;;;;;;;;;;;;;;;7.27;94.04;101668.00;5053879;28;19925;-84
2021/12/14 01:05:10;;;;;;;;;;;;;;;7.37;93.40;101662.97;5054680;28;20011;-84
2021/12/14 01:07:35;;;;;;;;;;;;;;;7.42;93.23;101668.75;5052880;28;20497;-84
2021/12/14 01:10:05;;;;;;;;;;;;;;;7.41;93.25;101665.28;5064574;28;19969;-84
2021/12/14 01:13:07;;;;;;;;;;;;;;;7.38;93.50;101662.00;5059055;28;19972;-84
2021/12/14 01:15:42;;;;;;;;;;;;;;;7.41;93.54;101667.06;5055826;28;19979;-84
2021/12/14 01:18:28;;;;;;;;;;;;;;;7.44;93.09;101670.34;5054285;28;20009;-84
2021/12/14 01:20:59;;;;;;;;;;;;;;;7.49;92.61;101674.47;5057180;28;19917;-84
2021/12/14 01:23:33;;;;;;;;;;;;;;;7.53;93.00;101668.03;5064616;28;19924;-84
2021/12/14 01:26:05;;;;;;;;;;;;;;;7.49;92.98;101677.94;5059749;28;19920;-84
2021/12/14 01:28:31;;;;;;;;;;;;;;;7.52;92.86;101682.13;5051319;28;19928;-84
2021/12/14 01:31:08;;;;;;;;;;;;;;;7.45;93.02;101694.84;5058733;28;19928;-84
2021/12/14 01:33:34;;;;;;;;;;;;;;;7.49;93.13;101688.44;5037307;28;20027;-84
2021/12/14 01:36:02;;;;;;;;;;;;;;;7.45;93.18;101689.59;5014512;28;19929;-84
2021/12/14 01:40:58;;;;;;;;;;;;;;;7.48;93.10;101680.66;5045596;28;19925;-84
2021/12/14 01:43:26;;;;;;;;;;;;;;;7.44;93.34;101686.13;5033163;28;20447;-84
2021/12/14 01:45:52;;;;;;;;;;;;;;;7.41;93.51;101683.72;5040294;28;19925;-84
2021/12/14 01:48:18;;;;;;;;;;;;;;;7.44;93.31;101680.88;5042131;28;19952;-84
2021/12/14 01:50:45;;;;;;;;;;;;;;;7.43;93.08;101683.59;5036863;28;19928;-84
2021/12/14 01:53:13;;;;;;;;;;;;;;;7.41;93.52;101691.59;5022539;28;19988;-84
2021/12/14 01:55:39;;;;;;;;;;;;;;;7.36;93.69;101695.47;5021852;28;19947;-84
2021/12/14 01:58:06;;;;;;;;;;;;;;;7.34;93.52;101697.34;5028252;28;19925;-84
2021/12/14 02:00:38;;;;;;;;;;;;;;;7.34;93.65;101706.13;5029492;28;20009;-84
2021/12/14 02:03:05;;;;;;;;;;;;;;;7.36;93.49;101706.00;5047846;28;19929;-84
2021/12/14 02:05:34;;;;;;;;;;;;;;;7.38;93.51;101706.75;5030396;28;19975;-84
2021/12/14 02:08:01;;;;;;;;;;;;;;;7.39;93.56;101704.03;5036129;28;19921;-84
2021/12/14 02:10:32;;;;;;;;;;;;;;;7.39;93.28;101701.38;5031719;28;19929;-84
2021/12/14 02:12:57;;;;;;;;;;;;;;;7.42;93.08;101703.81;5039829;28;19990;-84
2021/12/14 02:15:25;;;;;;;;;;;;;;;7.39;93.26;101703.19;5036599;28;20311;-84
2021/12/14 02:17:51;;;;;;;;;;;;;;;7.37;93.28;101689.28;5017786;28;19921;-84
2021/12/14 02:20:18;;;;;;;;;;;;;;;7.41;93.47;101690.75;5011636;28;19982;-84
2021/12/14 02:22:44;;;;;;;;;;;;;;;7.35;93.77;101686.75;5050941;28;19936;-84
2021/12/14 02:25:10;;;;;;;;;;;;;;;7.32;93.90;101692.22;5027855;28;20019;-84
2021/12/14 02:27:41;;;;;;;;;;;;;;;7.35;93.68;101697.25;5033896;28;19947;-84
2021/12/14 02:30:15;;;;;;;;;;;;;;;7.34;94.08;101710.50;5034765;28;19991;-85
2021/12/14 02:32:40;;;;;;;;;;;;;;;7.30;94.26;101715.16;5043547;28;19939;-84
2021/12/14 02:35:08;;;;;;;;;;;;;;;7.28;94.64;101717.03;5052329;28;19934;-84
2021/12/14 02:37:55;;;;;;;;;;;;;;;7.33;93.78;101716.72;5053270;28;19921;-84
2021/12/14 02:40:31;;;;;;;;;;;;;;;7.35;93.87;101712.22;5047034;28;19924;-84
2021/12/14 02:42:57;;;;;;;;;;;;;;;7.36;93.90;101712.09;5057780;28;19921;-83
2021/12/14 02:45:23;;;;;;;;;;;;;;;7.35;93.88;101710.41;5052641;28;20003;-84
2021/12/14 02:47:49;;;;;;;;;;;;;;;7.31;93.92;101701.03;5055633;28;20119;-84
2021/12/14 02:50:15;;;;;;;;;;;;;;;7.29;94.19;101696.81;5052831;28;20299;-84
2021/12/14 02:52:40;;;;;;;;;;;;;;;7.30;94.30;101698.53;5058004;28;19928;-83
2021/12/14 02:55:10;;;;;;;;;;;;;;;7.31;93.99;101702.84;5055163;28;19943;-84
2021/12/14 02:57:37;;;;;;;;;;;;;;;7.27;94.33;101699.56;5054918;28;19916;-84
2021/12/14 03:00:05;;;;;;;;;;;;;;;7.35;94.01;101702.53;5058220;28;19929;-84
2021/12/14 03:02:32;;;;;;;;;;;;;;;7.33;94.31;101703.56;5056870;28;20202;-84
2021/12/14 03:05:01;;;;;;;;;;;;;;;7.26;94.44;101705.75;5055872;28;19950;-84
2021/12/14 03:07:29;;;;;;;;;;;;;;;7.29;94.44;101700.28;5054170;28;19917;-84
2021/12/14 03:10:00;;;;;;;;;;;;;;;7.31;94.38;101697.56;5055643;28;20298;-84
2021/12/14 03:12:31;;;;;;;;;;;;;;;7.25;94.69;101696.19;5057813;28;19931;-84
2021/12/14 03:14:59;;;;;;;;;;;;;;;7.24;94.55;101697.13;5057251;28;20316;-84
2021/12/14 03:17:24;;;;;;;;;;;;;;;7.25;94.77;101692.72;5057635;28;19935;-84
2021/12/14 03:19:58;;;;;;;;;;;;;;;7.24;94.72;101681.34;5059108;28;20417;-84
2021/12/14 03:22:38;;;;;;;;;;;;;;;7.24;94.49;101678.72;5050439;28;19923;-84
2021/12/14 03:25:05;;;;;;;;;;;;;;;7.23;94.71;101679.66;5056290;28;20015;-84
2021/12/14 03:27:31;;;;;;;;;;;;;;;7.21;94.91;101676.28;5057354;28;19917;-84
2021/12/14 03:29:57;;;;;;;;;;;;;;;7.15;94.69;101669.66;5055503;28;19974;-84
2021/12/14 03:32:22;;;;;;;;;;;;;;;7.14;94.85;101667.13;5065240;28;19940;-84
2021/12/14 03:34:47;;;;;;;;;;;;;;;7.09;95.92;101666.59;5070186;28;20355;-84
2021/12/14 03:37:19;;;;;;;;;;;;;;;7.11;95.45;101669.97;5066613;28;19920;-84
2021/12/14 03:39:46;;;;;;;;;;;;;;;7.13;95.46;101670.72;5048907;28;19927;-84
2021/12/14 03:42:14;;;;;;;;;;;;;;;7.14;95.20;101672.38;5068080;28;20310;-85
2021/12/14 03:44:45;;;;;;;;;;;;;;;7.12;94.87;101663.75;5056316;28;20341;-84
2021/12/14 03:47:21;;;;;;;;;;;;;;;7.12;94.83;101661.13;5055810;28;19956;-84
2021/12/14 03:49:49;;;;;;;;;;;;;;;7.13;94.64;101671.53;5046255;28;19921;-84
2021/12/14 03:52:16;;;;;;;;;;;;;;;7.09;94.61;101672.69;5051911;28;20002;-84
2021/12/14 03:54:41;;;;;;;;;;;;;;;7.05;94.79;101665.94;5044096;28;19924;-84
2021/12/14 03:57:06;;;;;;;;;;;;;;;7.04;94.90;101663.41;5061954;28;20003;-84
2021/12/14 03:59:32;;;;;;;;;;;;;;;7.04;94.79;101659.00;5051231;28;20297;-84
2021/12/14 04:01:59;;;;;;;;;;;;;;;6.96;94.90;101664.75;5057980;28;19944;-84
2021/12/14 04:04:33;;;;;;;;;;;;;;;6.95;95.05;101667.47;5072518;28;19920;-84
2021/12/14 04:07:00;;;;;;;;;;;;;;;6.94;95.23;101673.69;5056187;28;20412;-84
2021/12/14 04:09:28;;;;;;;;;;;;;;;6.95;95.13;101663.06;5049779;28;19916;-84
2021/12/14 04:11:53;;;;;;;;;;;;;;;6.97;94.80;101655.91;5066345;28;19971;-84
2021/12/14 04:14:20;;;;;;;;;;;;;;;6.93;95.17;101654.44;5061601;28;19959;-84
2021/12/14 04:16:47;;;;;;;;;;;;;;;6.95;95.28;101655.19;5069850;28;19921;-84
2021/12/14 04:19:14;;;;;;;;;;;;;;;7.02;94.75;101650.38;5067501;28;20070;-84
2021/12/14 04:21:41;;;;;;;;;;;;;;;6.94;95.03;101656.13;5063863;28;20394;-84
2021/12/14 04:24:08;;;;;;;;;;;;;;;6.91;95.21;101653.72;5065042;28;20231;-84
2021/12/14 04:26:33;;;;;;;;;;;;;;;6.91;95.06;101658.97;5073932;28;19920;-84
2021/12/14 04:29:00;;;;;;;;;;;;;;;6.90;94.95;101654.63;5071680;28;20298;-84
2021/12/14 04:31:26;;;;;;;;;;;;;;;6.89;95.11;101658.22;5073170;28;19920;-84
2021/12/14 04:33:52;;;;;;;;;;;;;;;6.87;95.38;101648.75;5055718;28;19925;-84
2021/12/14 04:36:20;;;;;;;;;;;;;;;6.89;95.35;101646.84;5056656;28;19951;-84
2021/12/14 04:38:57;;;;;;;;;;;;;;;6.88;95.46;101650.41;5055308;28;19921;-84
2021/12/14 04:52:22;;;;;;;;;;;;;;;6.78;96.10;101648.38;5055554;28;19931;-84
2021/12/14 04:55:09;;;;;;;;;;;;;;;6.84;95.44;101654.19;5061156;28;19960;-84
2021/12/14 04:57:36;;;;;;;;;;;;;;;6.86;95.57;101647.03;5057916;28;20016;-84
2021/12/14 05:00:16;;;;;;;;;;;;;;;6.78;95.66;101627.34;5056827;28;19929;-84
2021/12/14 05:02:42;;;;;;;;;;;;;;;6.79;95.43;101622.94;5052133;28;19960;-84
2021/12/14 05:05:08;;;;;;;;;;;;;;;6.79;95.41;101634.31;5056835;28;19928;-84
2021/12/14 05:10:06;;;;;;;;;;;;;;;6.77;95.50;101623.06;5057417;28;19923;-84
2021/12/14 05:12:33;;;;;;;;;;;;;;;6.75;95.42;101617.06;5055545;28;19929;-84
2021/12/14 05:14:59;;;;;;;;;;;;;;;6.77;95.15;101611.72;5057648;28;19921;-84
2021/12/14 05:17:27;;;;;;;;;;;;;;;6.67;95.43;101602.72;5052869;28;19927;-84
2021/12/14 05:19:53;;;;;;;;;;;;;;;6.71;95.44;101588.44;5056526;28;19951;-84
2021/12/14 05:22:23;;;;;;;;;;;;;;;6.69;95.18;101585.91;5063329;28;19921;-84
2021/12/14 05:24:56;;;;;;;;;;;;;;;6.69;95.40;101585.06;5055911;28;19921;-84
2021/12/14 05:27:28;;;;;;;;;;;;;;;6.62;95.44;101589.88;5062612;28;20305;-84
2021/12/14 05:29:54;;;;;;;;;;;;;;;6.60;95.60;101578.59;5054797;28;19971;-84
2021/12/14 05:32:20;;;;;;;;;;;;;;;6.69;95.34;101583.28;5053180;28;20398;-84
2021/12/14 05:34:49;;;;;;;;;;;;;;;6.59;95.57;101584.81;5055377;28;19931;-84
2021/12/14 05:37:18;;;;;;;;;;;;;;;6.61;95.41;101590.00;5055701;28;20011;-83
2021/12/14 05:39:56;;;;;;;;;;;;;;;6.58;95.42;101585.78;5055311;28;19927;-84
2021/12/14 05:45:08;;;;;;;;;;;;;;;6.56;95.35;101574.53;5061587;28;19927;-84
2021/12/14 05:47:39;;;;;;;;;;;;;;;6.57;95.24;101577.03;5063791;28;19931;-84
2021/12/14 05:50:04;;;;;;;;;;;;;;;6.56;95.47;101575.34;5064540;28;19928;-84
2021/12/14 05:52:30;;;;;;;;;;;;;;;6.56;95.26;101575.34;5061924;28;19932;-84
2021/12/14 05:54:56;;;;;;;;;;;;;;;6.56;95.15;101582.41;5061861;28;19928;-83
2021/12/14 05:57:23;;;;;;;;;;;;;;;6.49;95.39;101574.06;5060931;28;19936;-84
2021/12/14 05:59:48;;;;;;;;;;;;;;;6.52;95.17;101583.53;5054962;28;19929;-84
2021/12/14 06:02:14;;;;;;;;;;;;;;;6.53;95.29;101587.84;5070913;28;19925;-84
2021/12/14 06:04:42;;;;;;;;;;;;;;;6.57;94.81;101581.44;5057468;28;19960;-84
2021/12/14 06:07:09;;;;;;;;;;;;;;;6.54;95.26;101573.78;5053376;28;20289;-84
2021/12/14 06:09:36;;;;;;;;;;;;;;;6.52;95.25;101579.13;5057215;28;19963;-84
2021/12/14 06:12:04;;;;;;;;;;;;;;;6.46;95.28;101578.66;5053466;28;19983;-85
2021/12/14 06:14:30;;;;;;;;;;;;;;;6.41;95.54;101573.72;5054546;28;19927;-84
2021/12/14 06:16:57;;;;;;;;;;;;;;;6.46;95.36;101590.03;5059398;28;20298;-83
2021/12/14 06:19:27;;;;;;;;;;;;;;;6.48;95.21;101580.25;5053083;28;19917;-84
2021/12/14 06:21:55;;;;;;;;;;;;;;;6.48;95.45;101590.75;5058164;28;19921;-84
2021/12/14 06:24:22;;;;;;;;;;;;;;;6.49;95.28;101583.75;5049361;28;19921;-84
2021/12/14 06:26:49;;;;;;;;;;;;;;;6.39;95.63;101575.63;5050736;28;19917;-83
2021/12/14 06:29:16;;;;;;;;;;;;;;;6.41;95.85;101581.59;5052181;28;20284;-83
2021/12/14 06:31:42;;;;;;;;;;;;;;;6.34;96.27;101588.19;5058371;28;19920;-83
2021/12/14 06:34:16;;;;;;;;;;;;;;;6.43;95.74;101592.84;5056022;28;19935;-84
2021/12/14 06:36:52;;;;;;;;;;;;;;;6.41;95.97;101593.88;5057398;28;19920;-83
2021/12/14 06:39:18;;;;;;;;;;;;;;;6.42;95.95;101596.44;5073537;28;20382;-84
2021/12/14 06:41:43;;;;;;;;;;;;;;;6.40;95.52;101602.72;5053343;28;19931;-83
2021/12/14 06:44:09;;;;;;;;;;;;;;;6.37;95.88;101607.22;5070444;28;19928;-84
2021/12/14 06:46:36;;;;;;;;;;;;;;;6.42;95.69;101613.97;5074652;28;19920;-84
2021/12/14 06:49:13;;;;;;;;;;;;;;;6.43;95.61;101613.88;5063840;28;20206;-83
2021/12/14 06:51:39;;;;;;;;;;;;;;;6.39;95.87;101625.53;5067676;28;19964;-84
2021/12/14 06:54:07;;;;;;;;;;;;;;;6.44;95.62;101618.19;5059209;28;19932;-84
2021/12/14 06:56:33;;;;;;;;;;;;;;;6.34;96.02;101610.06;5053197;28;19927;-84
2021/12/14 06:59:09;;;;;;;;;;;;;;;6.37;95.91;101622.16;5052719;28;19928;-84
2021/12/14 07:01:36;;;;;;;;;;;;;;;6.38;95.88;101616.78;5062335;28;19947;-84
2021/12/14 07:04:06;;;;;;;;;;;;;;;6.38;95.94;101627.28;5047668;28;19933;-83
2021/12/14 07:06:37;;;;;;;;;;;;;;;6.38;95.69;101636.97;5064944;28;19920;-83
2021/12/14 07:09:08;;;;;;;;;;;;;;;6.36;95.81;101636.22;5057720;28;19995;-84
2021/12/14 07:11:33;;;;;;;;;;;;;;;6.35;96.33;101637.16;5061549;28;19950;-84
2021/12/14 07:13:59;;;;;;;;;;;;;;;6.37;96.16;101641.38;5063506;28;19924;-83
2021/12/14 07:16:33;;;;;;;;;;;;;;;6.38;95.95;101655.34;5062517;28;20104;-83
2021/12/14 07:19:00;;;;;;;;;;;;;;;6.46;95.61;101662.75;5069473;28;19920;-84
2021/12/14 07:21:33;;;;;;;;;;;;;;;6.36;95.73;101676.47;5072824;28;20346;-84
2021/12/14 07:23:58;;;;;;;;;;;;;;;6.29;96.58;101680.44;5068758;28;19936;-84
2021/12/14 07:26:24;;;;;;;;;;;;;;;6.34;96.30;101680.13;5039735;28;19929;-84
2021/12/14 07:28:49;;;;;;;;;;;;;;;6.36;96.07;101675.63;5064240;28;19999;-84
2021/12/14 07:31:19;;;;;;;;;;;;;;;6.46;95.57;101673.25;5068332;28;19921;-83
2021/12/14 07:33:50;;;;;;;;;;;;;;;6.46;95.35;101671.50;5068117;28;19925;-84
2021/12/14 07:36:25;;;;;;;;;;;;;;;6.34;95.76;101685.38;5053201;28;19923;-84
2021/12/14 07:38:51;;;;;;;;;;;;;;;6.37;95.77;101680.78;5066656;28;20007;-83
2021/12/14 07:41:24;;;;;;;;;;;;;;;6.33;95.47;101686.31;5079102;28;19951;-83
2021/12/14 07:43:56;;;;;;;;;;;;;;;6.40;95.32;101677.13;5079296;28;19970;-83
2021/12/14 07:46:27;;;;;;;;;;;;;;;6.41;95.15;101683.22;5081575;28;19938;-84
2021/12/14 07:48:57;;;;;;;;;;;;;;;6.39;95.22;101670.19;5045501;28;19921;-84
2021/12/14 07:51:23;;;;;;;;;;;;;;;6.40;95.38;101661.34;5055980;28;19921;-84
2021/12/14 07:53:54;;;;;;;;;;;;;;;6.38;95.38;101665.84;5042236;28;19921;-83
2021/12/14 07:56:25;;;;;;;;;;;;;;;6.35;95.23;101659.00;5064212;28;19926;-83
2021/12/14 07:58:50;;;;;;;;;;;;;;;6.40;95.12;101658.72;5061440;28;19982;-83
2021/12/14 08:01:16;;;;;;;;;;;;;;;6.38;95.24;101669.31;5060554;28;19921;-83
2021/12/14 08:03:42;;;;;;;;;;;;;;;6.39;95.30;101664.94;5076559;28;19924;-83
2021/12/14 08:06:10;;;;;;;;;;;;;;;6.38;95.46;101660.59;5080654;28;19944;-83
2021/12/14 08:08:48;;;;;;;;;;;;;;;6.37;95.64;101658.94;5078032;28;19916;-83
2021/12/14 08:14:05;;;;;;;;;;;;;;;6.41;95.67;101659.56;5081052;28;19920;-83
2021/12/14 08:16:48;;;;;;;;;;;;;;;6.32;96.17;101668.88;5059664;28;19917;-83
2021/12/14 08:19:15;;;;;;;;;;;;;;;6.25;96.73;101673.69;5036083;28;19917;-83
2021/12/14 08:21:44;;;;;;;;;;;;;;;6.38;96.07;101679.84;5054711;28;19926;-82
2021/12/14 08:24:09;;;;;;;;;;;;;;;6.31;96.33;101685.56;5042319;28;20374;-83
2021/12/14 08:26:38;;;;;;;;;;;;;;;6.35;96.08;101685.28;5064374;28;19921;-82
2021/12/14 08:29:11;;;;;;;;;;;;;;;6.37;95.90;101680.78;5039544;28;20370;-82
2021/12/14 08:31:55;;;;;;;;;;;;;;;6.24;96.33;101676.38;5055377;28;20405;-83
2021/12/14 08:34:22;;;;;;;;;;;;;;;6.29;96.13;101682.19;5042455;28;20417;-83
2021/12/14 08:36:53;;;;;;;;;;;;;;;6.23;96.54;101685.22;5044380;28;19978;-83
2021/12/14 08:39:20;;;;;;;;;;;;;;;6.28;96.16;101678.72;5051518;28;19921;-83
2021/12/14 08:41:51;;;;;;;;;;;;;;;6.30;96.34;101687.38;5023850;28;19916;-83
2021/12/14 08:44:21;;;;;;;;;;;;;;;6.33;96.01;101691.56;5050881;28;19970;-83
2021/12/14 08:46:51;;;;;;;;;;;;;;;6.12;97.66;101699.00;5025813;28;19961;-83
2021/12/14 08:49:17;;;;;;;;;;;;;;;6.11;97.86;101698.16;5042802;28;20004;-82
2021/12/14 08:51:44;;;;;;;;;;;;;;;6.16;97.76;101695.25;5051199;28;19917;-83
2021/12/14 08:54:16;;;;;;;;;;;;;;;6.20;97.18;101693.25;5034947;28;20011;-83
2021/12/14 08:56:46;;;;;;;;;;;;;;;6.16;97.49;101688.22;5041034;28;19997;-83
2021/12/14 08:59:12;;;;;;;;;;;;;;;6.30;96.59;101687.38;5018462;28;19924;-83
2021/12/14 09:01:40;;;;;;;;;;;;;;;6.29;96.54;101692.69;5024140;28;20378;-82
2021/12/14 09:04:15;;;;;;;;;;;;;;;6.30;96.47;101687.38;5017413;28;19917;-82
2021/12/14 09:06:42;;;;;;;;;;;;;;;6.34;95.93;101701.13;5041410;28;19925;-82
2021/12/14 09:09:09;;;;;;;;;;;;;;;6.25;96.38;101702.56;5017800;28;19924;-82
2021/12/14 09:11:36;;;;;;;;;;;;;;;6.24;96.62;101700.03;5015607;28;19922;-82
2021/12/14 09:14:02;;;;;;;;;;;;;;;6.29;96.16;101701.44;5041317;28;19991;-82
2021/12/14 09:16:29;;;;;;;;;;;;;;;6.31;95.99;101698.72;5039755;28;19917;-82
2021/12/14 09:18:56;;;;;;;;;;;;;;;6.23;95.97;101706.22;5016294;28;19921;-82
2021/12/14 09:21:25;;;;;;;;;;;;;;;6.20;95.79;101709.91;5021584;28;20395;-82
2021/12/14 09:23:53;;;;;;;;;;;;;;;6.20;96.83;101717.78;5027070;28;19991;-82
2021/12/14 09:26:20;;;;;;;;;;;;;;;6.27;95.32;101708.56;5038846;28;19921;-83
2021/12/14 09:28:46;;;;;;;;;;;;;;;6.34;96.07;101706.38;5049893;28;19966;-82
2021/12/14 09:31:13;;;;;;;;;;;;;;;6.31;96.19;101717.09;5044876;28;20235;-82
2021/12/14 09:33:41;;;;;;;;;;;;;;;6.26;95.73;101709.50;5058295;28;20019;-82
2021/12/14 09:36:12;;;;;;;;;;;;;;;6.29;95.91;101706.69;5054922;28;19917;-83
2021/12/14 09:38:40;;;;;;;;;;;;;;;6.44;95.38;101712.78;5058640;28;19916;-83
2021/12/14 09:41:07;;;;;;;;;;;;;;;6.41;94.58;101701.59;5076653;28;19928;-83
2021/12/14 09:43:33;;;;;;;;;;;;;;;6.40;94.64;101707.81;5080962;28;19917;-83
2021/12/14 09:45:59;;;;;;;;;;;;;;;6.39;94.08;101712.22;5061426;28;19927;-83
2021/12/14 09:48:27;;;;;;;;;;;;;;;6.34;94.24;101709.00;5060823;28;19924;-83
2021/12/14 09:50:53;;;;;;;;;;;;;;;6.31;94.15;101710.06;5061284;28;20344;-83
2021/12/14 09:53:20;;;;;;;;;;;;;;;6.37;93.94;101712.31;5054663;28;20008;-83
2021/12/14 09:55:46;;;;;;;;;;;;;;;6.36;94.03;101709.78;5053172;28;20390;-83
2021/12/14 09:58:14;;;;;;;;;;;;;;;6.32;94.19;101711.75;5052640;28;19923;-83
2021/12/14 10:00:44;;;;;;;;;;;;;;;6.36;93.68;101717.66;5052884;28;19920;-83
2021/12/14 10:03:10;;;;;;;;;;;;;;;6.40;93.77;101721.78;5055426;28;19920;-82
2021/12/14 10:05:37;;;;;;;;;;;;;;;6.30;93.69;101718.88;5057974;28;20374;-82
2021/12/14 10:08:13;;;;;;;;;;;;;;;6.35;93.91;101710.72;5052451;28;20008;-82
2021/12/14 10:10:40;;;;;;;;;;;;;;;6.44;93.60;101710.16;5054677;28;20375;-83
2021/12/14 10:13:05;;;;;;;;;;;;;;;6.38;93.64;101707.91;5051645;28;20310;-82
2021/12/14 10:15:33;;;;;;;;;;;;;;;6.37;93.98;101712.31;5054733;28;19921;-83
2021/12/14 10:18:01;;;;;;;;;;;;;;;6.43;93.37;101720.75;5051615;28;19916;-82
2021/12/14 10:20:49;;;;;;;;;;;;;;;6.46;93.26;101726.66;5050313;28;19917;-83
2021/12/14 10:23:15;;;;;;;;;;;;;;;6.40;93.29;101724.41;5051866;28;20383;-83
2021/12/14 10:25:41;;;;;;;;;;;;;;;6.44;93.80;101720.66;5058159;28;19920;-82
2021/12/14 10:28:06;;;;;;;;;;;;;;;6.44;93.29;101715.41;5053350;28;19931;-82
2021/12/14 10:30:38;;;;;;;;;;;;;;;6.46;93.50;101712.66;5056485;28;20268;-82
2021/12/14 10:33:04;;;;;;;;;;;;;;;6.39;93.67;101714.84;5069890;28;19929;-83
2021/12/14 10:35:39;;;;;;;;;;;;;;;6.41;93.60;101717.38;5059644;28;20016;-82
2021/12/14 10:43:44;;;;;;;;;;;;;;;6.47;93.24;101720.47;5059547;28;19943;-83
2021/12/14 10:46:12;;;;;;;;;;;;;;;6.41;93.39;101726.09;5056730;28;19921;-82
2021/12/14 10:48:40;;;;;;;;;;;;;;;6.43;93.29;101715.50;5056366;28;19971;-83
2021/12/14 10:51:07;;;;;;;;;;;;;;;6.48;93.46;101716.03;5057148;28;20297;-83
2021/12/14 10:53:32;;;;;;;;;;;;;;;6.37;93.39;101719.34;5053859;28;19921;-83
2021/12/14 10:56:05;;;;;;;;;;;;;;;6.45;92.86;101711.00;5052426;28;20389;-83
2021/12/14 10:58:30;;;;;;;;;;;;;;;6.39;93.04;101712.22;5060677;28;20390;-83
2021/12/14 11:01:01;;;;;;;;;;;;;;;6.34;93.16;101716.91;5052952;28;19917;-83
2021/12/14 11:03:29;;;;;;;;;;;;;;;6.28;93.31;101710.25;5052476;28;19917;-83
2021/12/14 11:05:56;;;;;;;;;;;;;;;6.38;93.45;101718.41;5053392;28;20011;-83
2021/12/14 11:08:39;;;;;;;;;;;;;;;6.34;93.34;101717.75;5050314;28;19944;-83
2021/12/14 11:11:07;;;;;;;;;;;;;;;6.33;93.68;101712.59;5052877;28;19920;-83
2021/12/14 11:13:40;;;;;;;;;;;;;;;6.24;93.72;101719.25;5053034;28;19928;-83
2021/12/14 11:16:06;;;;;;;;;;;;;;;6.16;94.34;101718.88;5060080;28;19932;-83
2021/12/14 11:18:31;;;;;;;;;;;;;;;6.26;94.14;101721.78;5057380;28;19920;-83
2021/12/14 11:21:03;;;;;;;;;;;;;;;6.30;93.99;101713.63;5057461;28;19974;-83
2021/12/14 11:23:33;;;;;;;;;;;;;;;6.29;93.84;101711.97;5061359;28;20427;-83
2021/12/14 11:26:01;;;;;;;;;;;;;;;6.31;93.64;101710.06;5057081;28;20007;-83
2021/12/14 11:28:33;;;;;;;;;;;;;;;6.27;93.69;101711.19;5057087;28;20005;-83
2021/12/14 11:31:18;;;;;;;;;;;;;;;6.30;93.62;101705.75;5055826;28;19948;-83
2021/12/14 11:33:53;;;;;;;;;;;;;;;6.23;94.16;101706.22;5056225;28;20441;-83
2021/12/14 11:36:23;;;;;;;;;;;;;;;6.23;94.15;101701.81;5055502;28;19917;-82
2021/12/14 11:38:56;;;;;;;;;;;;;;;6.14;94.47;101692.72;5057431;28;19952;-82
2021/12/14 11:41:22;;;;;;;;;;;;;;;6.22;94.40;101702.75;5055988;28;20321;-83
2021/12/14 11:43:50;;;;;;;;;;;;;;;6.20;94.44;101701.16;5054827;28;19925;-83
2021/12/14 11:46:15;;;;;;;;;;;;;;;6.16;94.42;101695.25;5059651;28;19917;-83
2021/12/14 11:48:41;;;;;;;;;;;;;;;6.15;94.43;101685.69;5056430;28;19917;-83
2021/12/14 11:51:07;;;;;;;;;;;;;;;6.15;94.71;101686.53;5054354;28;19917;-83
2021/12/14 11:53:33;;;;;;;;;;;;;;;6.11;94.92;101685.03;5055115;28;19921;-82
2021/12/14 11:56:06;;;;;;;;;;;;;;;6.05;94.68;101688.03;5055579;28;20301;-83
2021/12/14 11:58:33;;;;;;;;;;;;;;;6.06;94.71;101687.09;5056157;28;20374;-83
2021/12/14 12:01:10;;;;;;;;;;;;;;;6.11;94.72;101682.41;5055345;28;19917;-82
2021/12/14 12:03:48;;;;;;;;;;;;;;;6.07;95.36;101677.44;5054599;28;19917;-83
2021/12/14 12:11:49;;;;;;;;;;;;;;;6.08;95.20;101676.50;5055744;28;19924;-82
2021/12/14 12:14:27;;;;;;;;;;;;;;;6.05;95.56;101672.25;5053870;28;19975;-83
2021/12/14 12:16:53;;;;;;;;;;;;;;;6.00;95.79;101681.38;5059722;28;20444;-83
2021/12/14 12:19:20;;;;;;;;;;;;;;;6.03;95.80;101674.16;5055158;28;19920;-82
2021/12/14 12:21:46;;;;;;;;;;;;;;;6.01;95.94;101670.78;5055045;28;19916;-82
2021/12/14 12:24:30;;;;;;;;;;;;;;;5.99;96.11;101670.03;5053844;28;19921;-82
2021/12/14 12:27:14;;;;;;;;;;;;;;;5.94;96.69;101678.19;5054733;28;20000;-83
2021/12/14 12:29:40;;;;;;;;;;;;;;;5.94;96.75;101679.97;5056197;28;19968;-83
2021/12/14 12:32:16;;;;;;;;;;;;;;;5.89;97.45;101687.25;5058581;28;19967;-83
2021/12/14 12:34:43;;;;;;;;;;;;;;;5.90;97.72;101675.81;5054233;28;19917;-83
2021/12/14 12:37:11;;;;;;;;;;;;;;;5.89;98.83;101679.38;5062383;28;19999;-83
2021/12/14 12:39:36;;;;;;;;;;;;;;;5.99;97.17;101684.94;5060391;28;19999;-83
2021/12/14 12:42:03;;;;;;;;;;;;;;;5.97;96.72;101678.94;5056184;28;20484;-83
2021/12/14 12:44:34;;;;;;;;;;;;;;;5.90;97.42;101675.81;5055746;28;19983;-83
2021/12/14 12:47:10;;;;;;;;;;;;;;;5.97;96.66;101666.66;5056685;28;19916;-83
2021/12/14 12:49:35;;;;;;;;;;;;;;;5.93;97.23;101670.38;5086679;28;19942;-83
2021/12/14 12:52:20;;;;;;;;;;;;;;;5.90;97.32;101668.78;5054878;28;19920;-83
2021/12/14 12:54:47;;;;;;;;;;;;;;;5.98;97.12;101665.69;5058269;28;19943;-83
2021/12/14 12:57:17;;;;;;;;;;;;;;;5.94;96.84;101661.59;5055150;28;20500;-83
2021/12/14 12:59:50;;;;;;;;;;;;;;;5.89;97.44;101667.09;5058295;28;19924;-83
2021/12/14 13:02:20;;;;;;;;;;;;;;;5.97;97.03;101666.66;5047416;28;19921;-83
2021/12/14 13:04:48;;;;;;;;;;;;;;;5.93;96.91;101667.75;5057234;28;19917;-83
2021/12/14 13:07:13;;;;;;;;;;;;;;;5.88;97.21;101660.13;5056697;28;19931;-83
2021/12/14 13:10:08;;;;;;;;;;;;;;;5.90;97.30;101663.53;5060512;28;19988;-83
2021/12/14 13:12:37;;;;;;;;;;;;;;;5.90;97.75;101660.06;5059136;28;19924;-84
2021/12/14 13:15:03;;;;;;;;;;;;;;;5.88;97.51;101662.75;5069360;28;19985;-83
2021/12/14 13:17:28;;;;;;;;;;;;;;;5.91;97.35;101662.59;5072996;28;20383;-83
2021/12/14 13:20:00;;;;;;;;;;;;;;;5.88;97.61;101659.31;5058393;28;19974;-83
2021/12/14 13:22:25;;;;;;;;;;;;;;;5.83;97.79;101662.22;5055901;28;25113;-83
2021/12/14 13:24:51;;;;;;;;;;;;;;;5.90;97.65;101655.66;5063102;28;19927;-83
2021/12/14 13:27:20;;;;;;;;;;;;;;;5.91;97.67;101666.97;5054086;28;19928;-83
2021/12/14 13:29:59;;;;;;;;;;;;;;;5.87;98.05;101665.50;5055805;28;19921;-83
2021/12/14 13:32:29;;;;;;;;;;;;;;;5.93;97.59;101665.97;5062783;28;19924;-83
2021/12/14 13:34:58;;;;;;;;;;;;;;;5.97;97.65;101674.53;5069931;28;19924;-83
2021/12/14 13:37:25;;;;;;;;;;;;;;;6.01;97.17;101669.94;5065986;28;19931;-83